Terminal Aerodrome Forecast
Issued by NWS

Home | Current Version | Previous Version | Text Only | Print | Product List | Glossary On
Versions: 1 2 3 4 5 6 7 8 9 10 11 12 13 14 15 16 17 18 19 20 21
000
FTUS45 KTFX 281700 RRA
TAFHLN
TAF
KHLN 281741Z 2818/2918 VRB05KT P6SM VCSH SCT090 BKN150
      WS020/25035KT
     FM290600 VRB06KT P6SM VCSH SCT040 BKN080 WS020/24040KT
     FM291000 31009KT 2SM -SN SCT015 OVC035=

USA.gov is the U.S. government's official web portal to all federal, state and local government web resources and services.